sensor_id;sensor_type;location;lat;lon;timestamp;temperature;humidity
431;DHT22;202;48.764;9.172;2023-10-08T09:39:00;23.50;8.00
431;DHT22;202;48.764;9.172;2023-10-08T09:41:34;23.00;8.80
431;DHT22;202;48.764;9.172;2023-10-08T09:44:19;22.80;9.40
431;DHT22;202;48.764;9.172;2023-10-08T09:47:08;22.80;9.20
431;DHT22;202;48.764;9.172;2023-10-08T09:49:49;22.80;9.90
431;DHT22;202;48.764;9.172;2023-10-08T10:02:57;22.90;10.70
431;DHT22;202;48.764;9.172;2023-10-08T10:05:38;23.00;11.60
431;DHT22;202;48.764;9.172;2023-10-08T10:08:09;23.10;11.90
431;DHT22;202;48.764;9.172;2023-10-08T10:10:58;23.00;10.40
431;DHT22;202;48.764;9.172;2023-10-08T10:13:28;23.10;11.20
431;DHT22;202;48.764;9.172;2023-10-08T10:15:57;23.20;10.30
431;DHT22;202;48.764;9.172;2023-10-08T10:18:37;23.10;11.40
431;DHT22;202;48.764;9.172;2023-10-08T10:21:40;23.30;10.50
431;DHT22;202;48.764;9.172;2023-10-08T10:24:22;23.40;11.80
431;DHT22;202;48.764;9.172;2023-10-08T10:27:10;23.40;9.80
431;DHT22;202;48.764;9.172;2023-10-08T10:29:37;23.40;9.60
431;DHT22;202;48.764;9.172;2023-10-08T10:32:05;23.30;10.00
431;DHT22;202;48.764;9.172;2023-10-08T10:34:38;23.30;10.50
431;DHT22;202;48.764;9.172;2023-10-08T10:37:05;23.30;11.60
431;DHT22;202;48.764;9.172;2023-10-08T10:39:36;23.40;11.90
431;DHT22;202;48.764;9.172;2023-10-08T10:42:08;23.50;10.00
431;DHT22;202;48.764;9.172;2023-10-08T10:44:46;23.50;10.00
431;DHT22;202;48.764;9.172;2023-10-08T10:47:18;23.50;9.40
431;DHT22;202;48.764;9.172;2023-10-08T10:50:05;23.60;11.80
431;DHT22;202;48.764;9.172;2023-10-08T10:52:46;23.70;12.10
431;DHT22;202;48.764;9.172;2023-10-08T10:55:24;23.80;10.70
431;DHT22;202;48.764;9.172;2023-10-08T10:57:58;23.90;11.10
431;DHT22;202;48.764;9.172;2023-10-08T11:00:47;23.90;10.10
431;DHT22;202;48.764;9.172;2023-10-08T11:03:31;23.80;9.30
431;DHT22;202;48.764;9.172;2023-10-08T11:06:02;23.60;10.10
431;DHT22;202;48.764;9.172;2023-10-08T11:08:40;23.50;9.90
431;DHT22;202;48.764;9.172;2023-10-08T11:11:11;23.60;10.50
431;DHT22;202;48.764;9.172;2023-10-08T11:13:43;23.60;11.00
431;DHT22;202;48.764;9.172;2023-10-08T11:16:17;23.60;10.70
431;DHT22;202;48.764;9.172;2023-10-08T11:18:50;23.40;11.40
431;DHT22;202;48.764;9.172;2023-10-08T11:21:24;23.40;12.00
431;DHT22;202;48.764;9.172;2023-10-08T11:23:52;23.40;11.80
431;DHT22;202;48.764;9.172;2023-10-08T11:26:22;23.40;12.60
431;DHT22;202;48.764;9.172;2023-10-08T11:28:58;23.50;12.10
431;DHT22;202;48.764;9.172;2023-10-08T11:31:27;23.50;11.80
431;DHT22;202;48.764;9.172;2023-10-08T11:33:59;23.70;11.70
431;DHT22;202;48.764;9.172;2023-10-08T11:36:28;23.70;12.30
431;DHT22;202;48.764;9.172;2023-10-08T11:39:11;23.70;11.00
431;DHT22;202;48.764;9.172;2023-10-08T11:41:55;23.80;13.20
431;DHT22;202;48.764;9.172;2023-10-08T11:44:22;24.00;12.40
431;DHT22;202;48.764;9.172;2023-10-08T11:46:49;24.20;12.50
431;DHT22;202;48.764;9.172;2023-10-08T11:49:17;24.40;11.00
431;DHT22;202;48.764;9.172;2023-10-08T11:51:46;24.50;11.30
431;DHT22;202;48.764;9.172;2023-10-08T11:54:14;24.60;12.20
431;DHT22;202;48.764;9.172;2023-10-08T11:56:41;24.70;11.60
431;DHT22;202;48.764;9.172;2023-10-08T11:59:08;24.80;11.60
431;DHT22;202;48.764;9.172;2023-10-08T12:01:35;24.70;9.90
431;DHT22;202;48.764;9.172;2023-10-08T12:04:03;24.70;10.20
431;DHT22;202;48.764;9.172;2023-10-08T12:06:38;24.80;10.00
431;DHT22;202;48.764;9.172;2023-10-08T12:09:06;24.80;10.00
431;DHT22;202;48.764;9.172;2023-10-08T12:11:40;24.90;10.40
431;DHT22;202;48.764;9.172;2023-10-08T12:14:18;25.00;11.40
431;DHT22;202;48.764;9.172;2023-10-08T12:16:52;25.10;11.10
431;DHT22;202;48.764;9.172;2023-10-08T12:19:19;25.10;10.80
431;DHT22;202;48.764;9.172;2023-10-08T12:21:47;25.10;10.20
431;DHT22;202;48.764;9.172;2023-10-08T12:24:16;25.10;10.20
431;DHT22;202;48.764;9.172;2023-10-08T12:26:43;25.10;10.20
431;DHT22;202;48.764;9.172;2023-10-08T12:29:12;25.10;10.50
431;DHT22;202;48.764;9.172;2023-10-08T12:31:40;25.10;11.20
431;DHT22;202;48.764;9.172;2023-10-08T12:34:07;25.10;10.90
431;DHT22;202;48.764;9.172;2023-10-08T12:36:37;25.00;10.20
431;DHT22;202;48.764;9.172;2023-10-08T12:39:04;25.00;12.30
431;DHT22;202;48.764;9.172;2023-10-08T12:41:37;25.00;11.80
431;DHT22;202;48.764;9.172;2023-10-08T12:44:04;24.90;10.60
431;DHT22;202;48.764;9.172;2023-10-08T12:46:34;24.90;10.10
431;DHT22;202;48.764;9.172;2023-10-08T12:49:00;24.80;13.20
431;DHT22;202;48.764;9.172;2023-10-08T12:51:28;24.80;10.00
431;DHT22;202;48.764;9.172;2023-10-08T12:53:59;24.70;10.70
431;DHT22;202;48.764;9.172;2023-10-08T12:56:32;24.70;9.90
431;DHT22;202;48.764;9.172;2023-10-08T12:59:02;24.70;10.70
431;DHT22;202;48.764;9.172;2023-10-08T13:01:32;24.70;12.10
431;DHT22;202;48.764;9.172;2023-10-08T13:04:01;24.70;9.90
431;DHT22;202;48.764;9.172;2023-10-08T13:06:33;24.70;9.10
431;DHT22;202;48.764;9.172;2023-10-08T13:09:03;24.70;9.90
431;DHT22;202;48.764;9.172;2023-10-08T13:11:38;24.70;11.60
431;DHT22;202;48.764;9.172;2023-10-08T13:14:06;24.70;9.90
431;DHT22;202;48.764;9.172;2023-10-08T13:16:33;24.70;13.50
431;DHT22;202;48.764;9.172;2023-10-08T13:19:03;24.60;12.70
431;DHT22;202;48.764;9.172;2023-10-08T13:21:34;24.60;12.50
431;DHT22;202;48.764;9.172;2023-10-08T13:24:03;24.60;11.20
431;DHT22;202;48.764;9.172;2023-10-08T13:26:34;24.60;12.50
431;DHT22;202;48.764;9.172;2023-10-08T13:29:03;24.60;12.10
431;DHT22;202;48.764;9.172;2023-10-08T13:31:32;24.60;12.90
431;DHT22;202;48.764;9.172;2023-10-08T13:34:02;24.50;8.10
431;DHT22;202;48.764;9.172;2023-10-08T13:36:34;24.50;10.80
431;DHT22;202;48.764;9.172;2023-10-08T13:39:03;24.50;10.70
431;DHT22;202;48.764;9.172;2023-10-08T13:41:34;24.50;12.90
431;DHT22;202;48.764;9.172;2023-10-08T13:44:03;24.50;11.70
431;DHT22;202;48.764;9.172;2023-10-08T13:46:33;24.60;13.30
431;DHT22;202;48.764;9.172;2023-10-08T13:49:02;24.50;11.90
431;DHT22;202;48.764;9.172;2023-10-08T13:51:31;24.50;11.80
431;DHT22;202;48.764;9.172;2023-10-08T13:54:00;24.50;11.10
431;DHT22;202;48.764;9.172;2023-10-08T13:56:32;24.50;12.20
431;DHT22;202;48.764;9.172;2023-10-08T13:58:59;24.40;10.20
431;DHT22;202;48.764;9.172;2023-10-08T14:01:40;24.40;13.60
431;DHT22;202;48.764;9.172;2023-10-08T14:04:09;24.40;12.40
431;DHT22;202;48.764;9.172;2023-10-08T14:06:37;24.50;14.20
431;DHT22;202;48.764;9.172;2023-10-08T14:09:07;24.50;13.30
431;DHT22;202;48.764;9.172;2023-10-08T14:11:37;24.40;10.10
431;DHT22;202;48.764;9.172;2023-10-08T14:14:04;24.40;12.60
431;DHT22;202;48.764;9.172;2023-10-08T14:16:38;24.40;12.80
431;DHT22;202;48.764;9.172;2023-10-08T14:19:07;24.40;12.70
431;DHT22;202;48.764;9.172;2023-10-08T14:21:38;24.30;13.30
431;DHT22;202;48.764;9.172;2023-10-08T14:24:15;24.30;12.70
431;DHT22;202;48.764;9.172;2023-10-08T14:26:41;24.30;10.40
431;DHT22;202;48.764;9.172;2023-10-08T14:29:09;24.30;12.70
431;DHT22;202;48.764;9.172;2023-10-08T14:31:41;24.30;10.30
431;DHT22;202;48.764;9.172;2023-10-08T14:34:14;24.30;10.90
431;DHT22;202;48.764;9.172;2023-10-08T14:37:10;24.30;13.00
431;DHT22;202;48.764;9.172;2023-10-08T14:39:54;24.30;13.70
431;DHT22;202;48.764;9.172;2023-10-08T14:42:42;24.20;12.60
431;DHT22;202;48.764;9.172;2023-10-08T14:45:29;24.20;10.40
431;DHT22;202;48.764;9.172;2023-10-08T14:47:57;24.10;11.20
431;DHT22;202;48.764;9.172;2023-10-08T14:50:26;24.10;11.90
431;DHT22;202;48.764;9.172;2023-10-08T14:52:55;24.00;10.60
431;DHT22;202;48.764;9.172;2023-10-08T14:55:25;24.00;12.40
431;DHT22;202;48.764;9.172;2023-10-08T14:57:52;24.00;12.20
431;DHT22;202;48.764;9.172;2023-10-08T15:00:20;24.00;11.70
431;DHT22;202;48.764;9.172;2023-10-08T15:02:56;23.90;12.40
431;DHT22;202;48.764;9.172;2023-10-08T15:05:28;23.90;11.80
431;DHT22;202;48.764;9.172;2023-10-08T15:07:57;23.90;12.20
431;DHT22;202;48.764;9.172;2023-10-08T15:10:24;23.90;13.30
431;DHT22;202;48.764;9.172;2023-10-08T15:12:52;23.90;11.80
431;DHT22;202;48.764;9.172;2023-10-08T15:15:19;23.90;13.80
431;DHT22;202;48.764;9.172;2023-10-08T15:17:50;23.80;11.60
431;DHT22;202;48.764;9.172;2023-10-08T15:20:17;23.80;14.00
431;DHT22;202;48.764;9.172;2023-10-08T15:22:46;23.80;12.50
431;DHT22;202;48.764;9.172;2023-10-08T15:25:16;23.80;13.30
431;DHT22;202;48.764;9.172;2023-10-08T15:27:44;23.80;12.90
431;DHT22;202;48.764;9.172;2023-10-08T15:30:14;23.70;13.90
431;DHT22;202;48.764;9.172;2023-10-08T15:32:43;23.70;13.90
431;DHT22;202;48.764;9.172;2023-10-08T15:35:15;23.70;14.90
431;DHT22;202;48.764;9.172;2023-10-08T15:37:46;23.60;13.60
431;DHT22;202;48.764;9.172;2023-10-08T15:40:22;23.60;14.10
431;DHT22;202;48.764;9.172;2023-10-08T15:42:53;23.70;12.90
431;DHT22;202;48.764;9.172;2023-10-08T15:45:33;23.70;14.30
431;DHT22;202;48.764;9.172;2023-10-08T15:48:13;23.70;14.70
431;DHT22;202;48.764;9.172;2023-10-08T15:51:37;23.60;14.10
431;DHT22;202;48.764;9.172;2023-10-08T15:54:32;23.60;14.50
431;DHT22;202;48.764;9.172;2023-10-08T15:57:14;23.50;15.00
431;DHT22;202;48.764;9.172;2023-10-08T16:03:53;23.50;13.50
431;DHT22;202;48.764;9.172;2023-10-08T16:10:05;23.40;13.80
431;DHT22;202;48.764;9.172;2023-10-08T16:12:33;23.40;14.60
431;DHT22;202;48.764;9.172;2023-10-08T16:15:02;23.30;14.90
431;DHT22;202;48.764;9.172;2023-10-08T16:17:31;23.30;14.10
431;DHT22;202;48.764;9.172;2023-10-08T16:19:58;23.30;14.90
431;DHT22;202;48.764;9.172;2023-10-08T16:22:29;23.30;13.30
431;DHT22;202;48.764;9.172;2023-10-08T16:25:01;23.30;14.70
431;DHT22;202;48.764;9.172;2023-10-08T16:27:51;23.20;13.70
431;DHT22;202;48.764;9.172;2023-10-08T16:30:23;23.10;13.90
431;DHT22;202;48.764;9.172;2023-10-08T16:32:53;23.00;14.90
431;DHT22;202;48.764;9.172;2023-10-08T16:35:21;22.90;15.00
431;DHT22;202;48.764;9.172;2023-10-08T16:38:05;22.80;14.70
431;DHT22;202;48.764;9.172;2023-10-08T16:40:49;22.80;15.20
431;DHT22;202;48.764;9.172;2023-10-08T16:43:48;22.70;16.50
431;DHT22;202;48.764;9.172;2023-10-08T16:46:29;22.60;16.10
431;DHT22;202;48.764;9.172;2023-10-08T16:49:10;22.60;15.90
431;DHT22;202;48.764;9.172;2023-10-08T16:51:45;22.40;16.50
431;DHT22;202;48.764;9.172;2023-10-08T16:54:46;22.40;16.00
431;DHT22;202;48.764;9.172;2023-10-08T16:57:20;22.40;15.80
431;DHT22;202;48.764;9.172;2023-10-08T16:59:51;22.30;16.20
431;DHT22;202;48.764;9.172;2023-10-08T17:02:40;22.10;16.20
431;DHT22;202;48.764;9.172;2023-10-08T17:05:10;21.90;16.70
431;DHT22;202;48.764;9.172;2023-10-08T17:07:58;21.90;16.70
431;DHT22;202;48.764;9.172;2023-10-08T17:13:32;21.90;16.70
431;DHT22;202;48.764;9.172;2023-10-08T17:16:14;21.70;16.60
431;DHT22;202;48.764;9.172;2023-10-08T17:18:45;21.70;16.60
431;DHT22;202;48.764;9.172;2023-10-08T17:21:18;21.70;17.50
431;DHT22;202;48.764;9.172;2023-10-08T17:23:49;21.50;16.70
431;DHT22;202;48.764;9.172;2023-10-08T17:26:30;21.40;17.20
431;DHT22;202;48.764;9.172;2023-10-08T17:28:58;21.30;17.60
431;DHT22;202;48.764;9.172;2023-10-08T17:35:07;21.30;17.30
431;DHT22;202;48.764;9.172;2023-10-08T17:37:34;21.30;17.30
431;DHT22;202;48.764;9.172;2023-10-08T17:40:09;21.20;17.50
431;DHT22;202;48.764;9.172;2023-10-08T17:42:58;21.20;18.20
431;DHT22;202;48.764;9.172;2023-10-08T17:45:45;21.10;18.90
431;DHT22;202;48.764;9.172;2023-10-08T18:08:57;20.30;21.50
431;DHT22;202;48.764;9.172;2023-10-08T18:15:41;20.20;22.10
431;DHT22;202;48.764;9.172;2023-10-08T18:22:09;20.20;22.40
431;DHT22;202;48.764;9.172;2023-10-08T22:12:29;17.90;28.30
431;DHT22;202;48.764;9.172;2023-10-08T22:18:57;17.80;28.40
431;DHT22;202;48.764;9.172;2023-10-08T22:21:36;17.80;28.50
431;DHT22;202;48.764;9.172;2023-10-08T22:24:04;17.70;28.40
431;DHT22;202;48.764;9.172;2023-10-08T22:26:41;17.60;28.80
431;DHT22;202;48.764;9.172;2023-10-08T22:29:15;17.60;28.80
431;DHT22;202;48.764;9.172;2023-10-08T22:32:03;17.70;29.00
431;DHT22;202;48.764;9.172;2023-10-08T22:34:33;17.70;28.40
431;DHT22;202;48.764;9.172;2023-10-08T22:37:18;17.70;28.00
431;DHT22;202;48.764;9.172;2023-10-08T22:40:01;17.80;27.70
431;DHT22;202;48.764;9.172;2023-10-08T22:46:12;17.80;27.50
431;DHT22;202;48.764;9.172;2023-10-08T22:55:27;17.60;27.40
431;DHT22;202;48.764;9.172;2023-10-08T23:22:40;17.40;26.70
431;DHT22;202;48.764;9.172;2023-10-08T23:25:29;17.30;26.00
431;DHT22;202;48.764;9.172;2023-10-08T23:28:15;17.40;26.40
431;DHT22;202;48.764;9.172;2023-10-08T23:30:58;17.30;26.80
431;DHT22;202;48.764;9.172;2023-10-08T23:34:46;17.30;26.70
431;DHT22;202;48.764;9.172;2023-10-08T23:37:48;17.40;26.50
431;DHT22;202;48.764;9.172;2023-10-08T23:41:08;17.30;26.30
431;DHT22;202;48.764;9.172;2023-10-08T23:46:11;17.40;26.10
